sensor_id;sensor_type;location;lat;lon;timestamp;P1;durP1;ratioP1;P2;durP2;ratioP2
37169;SDS011;23062;13.952;100.608;2024-02-28T00:00:36;6.67;;;12.42;;
37169;SDS011;23062;13.952;100.608;2024-02-28T00:05:17;5.95;;;11.20;;
37169;SDS011;23062;13.952;100.608;2024-02-28T00:10:01;6.29;;;12.37;;
37169;SDS011;23062;13.952;100.608;2024-02-28T00:14:46;6.32;;;10.90;;
37169;SDS011;23062;13.952;100.608;2024-02-28T00:19:23;5.95;;;11.62;;
37169;SDS011;23062;13.952;100.608;2024-02-28T00:24:07;5.79;;;10.81;;
37169;SDS011;23062;13.952;100.608;2024-02-28T00:28:54;6.16;;;12.34;;
37169;SDS011;23062;13.952;100.608;2024-02-28T00:33:39;5.78;;;11.20;;
37169;SDS011;23062;13.952;100.608;2024-02-28T00:38:25;5.07;;;9.66;;
37169;SDS011;23062;13.952;100.608;2024-02-28T00:43:04;5.59;;;10.53;;
37169;SDS011;23062;13.952;100.608;2024-02-28T00:47:49;5.55;;;9.43;;
37169;SDS011;23062;13.952;100.608;2024-02-28T00:52:41;5.32;;;9.42;;
37169;SDS011;23062;13.952;100.608;2024-02-28T00:57:26;5.54;;;9.82;;
37169;SDS011;23062;13.952;100.608;2024-02-28T01:02:10;4.51;;;7.86;;
37169;SDS011;23062;13.952;100.608;2024-02-28T01:06:55;6.03;;;9.94;;
37169;SDS011;23062;13.952;100.608;2024-02-28T01:11:39;5.75;;;9.17;;
37169;SDS011;23062;13.952;100.608;2024-02-28T01:16:25;5.52;;;8.76;;
37169;SDS011;23062;13.952;100.608;2024-02-28T01:21:10;5.32;;;8.71;;
37169;SDS011;23062;13.952;100.608;2024-02-28T01:25:50;5.57;;;8.37;;
37169;SDS011;23062;13.952;100.608;2024-02-28T01:30:37;5.72;;;8.41;;
37169;SDS011;23062;13.952;100.608;2024-02-28T01:35:14;5.47;;;8.71;;
37169;SDS011;23062;13.952;100.608;2024-02-28T01:39:58;6.10;;;8.90;;
37169;SDS011;23062;13.952;100.608;2024-02-28T01:44:44;5.46;;;8.79;;
37169;SDS011;23062;13.952;100.608;2024-02-28T01:49:28;5.68;;;8.09;;
37169;SDS011;23062;13.952;100.608;2024-02-28T01:54:11;4.78;;;6.86;;
37169;SDS011;23062;13.952;100.608;2024-02-28T01:58:56;3.57;;;7.28;;
37169;SDS011;23062;13.952;100.608;2024-02-28T02:03:44;3.61;;;7.95;;
37169;SDS011;23062;13.952;100.608;2024-02-28T02:08:22;3.16;;;6.80;;
37169;SDS011;23062;13.952;100.608;2024-02-28T02:13:07;3.68;;;7.31;;
37169;SDS011;23062;13.952;100.608;2024-02-28T02:17:50;4.00;;;7.73;;
37169;SDS011;23062;13.952;100.608;2024-02-28T02:22:38;5.16;;;8.98;;
37169;SDS011;23062;13.952;100.608;2024-02-28T02:27:14;5.38;;;8.37;;
37169;SDS011;23062;13.952;100.608;2024-02-28T02:32:01;6.00;;;8.12;;
37169;SDS011;23062;13.952;100.608;2024-02-28T02:36:45;7.38;;;9.57;;
37169;SDS011;23062;13.952;100.608;2024-02-28T02:41:30;9.42;;;10.94;;
37169;SDS011;23062;13.952;100.608;2024-02-28T02:46:08;8.97;;;10.18;;
37169;SDS011;23062;13.952;100.608;2024-02-28T02:50:53;8.62;;;9.44;;
37169;SDS011;23062;13.952;100.608;2024-02-28T02:55:35;9.19;;;10.65;;
37169;SDS011;23062;13.952;100.608;2024-02-28T03:00:20;9.59;;;10.68;;
37169;SDS011;23062;13.952;100.608;2024-02-28T03:04:58;7.47;;;8.51;;
37169;SDS011;23062;13.952;100.608;2024-02-28T03:09:43;8.10;;;9.74;;
37169;SDS011;23062;13.952;100.608;2024-02-28T03:14:26;8.63;;;9.80;;
37169;SDS011;23062;13.952;100.608;2024-02-28T03:19:09;8.74;;;9.83;;
37169;SDS011;23062;13.952;100.608;2024-02-28T03:23:55;7.98;;;9.42;;
37169;SDS011;23062;13.952;100.608;2024-02-28T03:28:39;8.83;;;9.49;;
37169;SDS011;23062;13.952;100.608;2024-02-28T03:33:28;8.42;;;9.03;;
37169;SDS011;23062;13.952;100.608;2024-02-28T03:38:05;9.05;;;9.97;;
37169;SDS011;23062;13.952;100.608;2024-02-28T03:42:47;9.26;;;10.02;;
37169;SDS011;23062;13.952;100.608;2024-02-28T03:47:33;8.78;;;9.18;;
37169;SDS011;23062;13.952;100.608;2024-02-28T03:52:16;10.44;;;10.15;;
37169;SDS011;23062;13.952;100.608;2024-02-28T03:57:01;10.95;;;10.80;;
37169;SDS011;23062;13.952;100.608;2024-02-28T04:01:43;13.78;;;11.94;;
37169;SDS011;23062;13.952;100.608;2024-02-28T04:06:20;11.81;;;10.92;;
37169;SDS011;23062;13.952;100.608;2024-02-28T04:11:02;11.32;;;10.89;;
37169;SDS011;23062;13.952;100.608;2024-02-28T04:15:48;11.57;;;10.41;;
37169;SDS011;23062;13.952;100.608;2024-02-28T04:20:32;12.44;;;12.17;;
37169;SDS011;23062;13.952;100.608;2024-02-28T04:25:18;11.03;;;10.36;;
37169;SDS011;23062;13.952;100.608;2024-02-28T04:29:55;11.34;;;10.81;;
37169;SDS011;23062;13.952;100.608;2024-02-28T04:34:40;11.27;;;11.24;;
37169;SDS011;23062;13.952;100.608;2024-02-28T04:39:24;11.68;;;11.25;;
37169;SDS011;23062;13.952;100.608;2024-02-28T04:44:09;11.89;;;10.85;;
37169;SDS011;23062;13.952;100.608;2024-02-28T04:48:53;11.12;;;9.94;;
37169;SDS011;23062;13.952;100.608;2024-02-28T04:53:40;11.75;;;10.90;;
37169;SDS011;23062;13.952;100.608;2024-02-28T04:58:25;13.70;;;12.29;;
37169;SDS011;23062;13.952;100.608;2024-02-28T05:03:03;12.88;;;12.73;;
37169;SDS011;23062;13.952;100.608;2024-02-28T05:07:47;13.82;;;12.32;;
37169;SDS011;23062;13.952;100.608;2024-02-28T05:12:33;13.40;;;11.57;;
37169;SDS011;23062;13.952;100.608;2024-02-28T05:17:19;13.29;;;12.11;;
37169;SDS011;23062;13.952;100.608;2024-02-28T05:22:03;15.50;;;12.81;;
37169;SDS011;23062;13.952;100.608;2024-02-28T05:26:50;15.12;;;13.19;;
37169;SDS011;23062;13.952;100.608;2024-02-28T05:31:35;14.34;;;11.69;;
37169;SDS011;23062;13.952;100.608;2024-02-28T05:36:19;14.59;;;11.95;;
37169;SDS011;23062;13.952;100.608;2024-02-28T05:41:06;15.29;;;12.01;;
37169;SDS011;23062;13.952;100.608;2024-02-28T05:45:43;17.27;;;13.87;;
37169;SDS011;23062;13.952;100.608;2024-02-28T05:50:20;15.07;;;12.81;;
37169;SDS011;23062;13.952;100.608;2024-02-28T05:55:05;15.39;;;12.78;;
37169;SDS011;23062;13.952;100.608;2024-02-28T05:59:54;16.58;;;13.33;;
37169;SDS011;23062;13.952;100.608;2024-02-28T06:04:36;15.23;;;11.89;;
37169;SDS011;23062;13.952;100.608;2024-02-28T06:09:24;14.43;;;11.44;;
37169;SDS011;23062;13.952;100.608;2024-02-28T06:14:02;14.69;;;12.35;;
37169;SDS011;23062;13.952;100.608;2024-02-28T06:18:51;19.34;;;14.52;;
37169;SDS011;23062;13.952;100.608;2024-02-28T06:23:32;16.95;;;14.01;;
37169;SDS011;23062;13.952;100.608;2024-02-28T06:28:11;15.10;;;12.92;;
37169;SDS011;23062;13.952;100.608;2024-02-28T06:32:53;16.32;;;13.23;;
37169;SDS011;23062;13.952;100.608;2024-02-28T06:37:48;16.16;;;12.70;;
37169;SDS011;23062;13.952;100.608;2024-02-28T06:42:34;18.33;;;13.74;;
37169;SDS011;23062;13.952;100.608;2024-02-28T06:47:13;15.52;;;11.69;;
37169;SDS011;23062;13.952;100.608;2024-02-28T06:51:59;16.85;;;12.26;;
37169;SDS011;23062;13.952;100.608;2024-02-28T06:56:47;15.95;;;12.65;;
37169;SDS011;23062;13.952;100.608;2024-02-28T07:01:31;17.48;;;13.65;;
37169;SDS011;23062;13.952;100.608;2024-02-28T07:06:17;17.64;;;13.66;;
37169;SDS011;23062;13.952;100.608;2024-02-28T07:10:57;18.42;;;14.03;;
37169;SDS011;23062;13.952;100.608;2024-02-28T07:15:36;18.23;;;14.95;;
37169;SDS011;23062;13.952;100.608;2024-02-28T07:20:13;17.84;;;14.00;;
37169;SDS011;23062;13.952;100.608;2024-02-28T07:24:53;18.13;;;14.07;;
37169;SDS011;23062;13.952;100.608;2024-02-28T07:29:33;15.15;;;12.57;;
37169;SDS011;23062;13.952;100.608;2024-02-28T07:34:13;15.48;;;12.06;;
37169;SDS011;23062;13.952;100.608;2024-02-28T07:38:50;16.36;;;12.91;;
37169;SDS011;23062;13.952;100.608;2024-02-28T07:43:42;16.18;;;13.24;;
37169;SDS011;23062;13.952;100.608;2024-02-28T07:48:28;15.77;;;13.14;;
37169;SDS011;23062;13.952;100.608;2024-02-28T07:53:08;13.99;;;11.71;;
37169;SDS011;23062;13.952;100.608;2024-02-28T07:57:51;16.00;;;13.57;;
37169;SDS011;23062;13.952;100.608;2024-02-28T08:02:34;15.41;;;13.06;;
37169;SDS011;23062;13.952;100.608;2024-02-28T08:07:14;14.70;;;13.63;;
37169;SDS011;23062;13.952;100.608;2024-02-28T08:12:02;12.52;;;13.76;;
37169;SDS011;23062;13.952;100.608;2024-02-28T08:16:48;9.43;;;11.43;;
37169;SDS011;23062;13.952;100.608;2024-02-28T08:21:33;8.76;;;10.79;;
37169;SDS011;23062;13.952;100.608;2024-02-28T08:26:14;7.08;;;8.78;;
37169;SDS011;23062;13.952;100.608;2024-02-28T08:30:55;6.97;;;9.71;;
37169;SDS011;23062;13.952;100.608;2024-02-28T08:35:34;6.67;;;10.75;;
37169;SDS011;23062;13.952;100.608;2024-02-28T08:40:20;5.83;;;9.90;;
37169;SDS011;23062;13.952;100.608;2024-02-28T08:45:01;5.23;;;10.09;;
37169;SDS011;23062;13.952;100.608;2024-02-28T08:49:46;4.70;;;10.91;;
37169;SDS011;23062;13.952;100.608;2024-02-28T08:54:23;3.60;;;10.99;;
37169;SDS011;23062;13.952;100.608;2024-02-28T08:59:14;2.95;;;10.84;;
37169;SDS011;23062;13.952;100.608;2024-02-28T09:04:00;2.69;;;11.13;;
37169;SDS011;23062;13.952;100.608;2024-02-28T09:08:48;2.35;;;10.38;;
37169;SDS011;23062;13.952;100.608;2024-02-28T09:13:33;2.68;;;9.78;;
37169;SDS011;23062;13.952;100.608;2024-02-28T09:18:20;2.67;;;9.41;;
37169;SDS011;23062;13.952;100.608;2024-02-28T09:23:06;2.31;;;10.03;;
37169;SDS011;23062;13.952;100.608;2024-02-28T09:27:49;2.19;;;9.63;;
37169;SDS011;23062;13.952;100.608;2024-02-28T09:32:33;2.77;;;9.48;;
37169;SDS011;23062;13.952;100.608;2024-02-28T09:37:24;3.58;;;10.34;;
37169;SDS011;23062;13.952;100.608;2024-02-28T09:42:08;3.18;;;9.21;;
37169;SDS011;23062;13.952;100.608;2024-02-28T09:46:56;3.54;;;9.62;;
37169;SDS011;23062;13.952;100.608;2024-02-28T09:51:34;4.07;;;9.77;;
37169;SDS011;23062;13.952;100.608;2024-02-28T09:56:18;4.83;;;9.89;;
37169;SDS011;23062;13.952;100.608;2024-02-28T10:00:56;5.55;;;10.48;;
37169;SDS011;23062;13.952;100.608;2024-02-28T10:05:41;5.58;;;9.75;;
37169;SDS011;23062;13.952;100.608;2024-02-28T10:10:32;5.46;;;9.37;;
37169;SDS011;23062;13.952;100.608;2024-02-28T10:15:11;5.14;;;9.37;;
37169;SDS011;23062;13.952;100.608;2024-02-28T10:19:51;5.18;;;9.38;;
37169;SDS011;23062;13.952;100.608;2024-02-28T10:24:32;5.25;;;8.65;;
37169;SDS011;23062;13.952;100.608;2024-02-28T10:29:15;5.38;;;8.77;;
37169;SDS011;23062;13.952;100.608;2024-02-28T10:34:07;5.31;;;8.36;;
37169;SDS011;23062;13.952;100.608;2024-02-28T10:38:55;5.59;;;8.47;;
37169;SDS011;23062;13.952;100.608;2024-02-28T10:43:43;6.31;;;8.24;;
37169;SDS011;23062;13.952;100.608;2024-02-28T10:48:30;5.96;;;7.50;;
37169;SDS011;23062;13.952;100.608;2024-02-28T10:53:21;7.62;;;8.12;;
37169;SDS011;23062;13.952;100.608;2024-02-28T10:58:09;7.18;;;8.15;;
37169;SDS011;23062;13.952;100.608;2024-02-28T11:02:57;6.26;;;7.17;;
37169;SDS011;23062;13.952;100.608;2024-02-28T11:07:41;6.55;;;6.92;;
37169;SDS011;23062;13.952;100.608;2024-02-28T11:12:27;7.60;;;7.82;;
37169;SDS011;23062;13.952;100.608;2024-02-28T11:17:08;8.08;;;8.73;;
37169;SDS011;23062;13.952;100.608;2024-02-28T11:21:56;6.62;;;7.36;;
37169;SDS011;23062;13.952;100.608;2024-02-28T11:26:42;7.93;;;8.26;;
37169;SDS011;23062;13.952;100.608;2024-02-28T11:31:28;7.66;;;7.90;;
37169;SDS011;23062;13.952;100.608;2024-02-28T11:36:17;9.65;;;9.75;;
37169;SDS011;23062;13.952;100.608;2024-02-28T11:41:05;9.15;;;9.71;;
37169;SDS011;23062;13.952;100.608;2024-02-28T11:45:51;10.92;;;9.89;;
37169;SDS011;23062;13.952;100.608;2024-02-28T11:50:39;9.55;;;9.29;;
37169;SDS011;23062;13.952;100.608;2024-02-28T11:55:22;8.95;;;8.78;;
37169;SDS011;23062;13.952;100.608;2024-02-28T12:00:07;7.74;;;8.28;;
37169;SDS011;23062;13.952;100.608;2024-02-28T12:05:04;8.53;;;9.12;;
37169;SDS011;23062;13.952;100.608;2024-02-28T12:09:49;8.04;;;8.65;;
37169;SDS011;23062;13.952;100.608;2024-02-28T12:14:36;9.38;;;9.54;;
37169;SDS011;23062;13.952;100.608;2024-02-28T12:19:15;7.59;;;8.25;;
37169;SDS011;23062;13.952;100.608;2024-02-28T12:24:04;7.77;;;8.29;;
37169;SDS011;23062;13.952;100.608;2024-02-28T12:28:45;8.47;;;8.75;;
37169;SDS011;23062;13.952;100.608;2024-02-28T12:33:27;7.59;;;7.81;;
37169;SDS011;23062;13.952;100.608;2024-02-28T12:38:13;7.17;;;7.79;;
37169;SDS011;23062;13.952;100.608;2024-02-28T12:42:57;6.08;;;6.87;;
37169;SDS011;23062;13.952;100.608;2024-02-28T12:47:44;6.87;;;7.79;;
37169;SDS011;23062;13.952;100.608;2024-02-28T12:52:25;6.00;;;6.86;;
37169;SDS011;23062;13.952;100.608;2024-02-28T12:57:13;6.52;;;6.84;;
37169;SDS011;23062;13.952;100.608;2024-02-28T13:01:58;5.49;;;6.37;;
37169;SDS011;23062;13.952;100.608;2024-02-28T13:06:44;5.19;;;5.94;;
37169;SDS011;23062;13.952;100.608;2024-02-28T13:11:32;5.46;;;6.37;;
37169;SDS011;23062;13.952;100.608;2024-02-28T13:16:19;4.65;;;5.52;;
37169;SDS011;23062;13.952;100.608;2024-02-28T13:21:07;4.94;;;5.52;;
37169;SDS011;23062;13.952;100.608;2024-02-28T13:25:51;4.81;;;5.49;;
37169;SDS011;23062;13.952;100.608;2024-02-28T13:30:31;4.30;;;5.02;;
37169;SDS011;23062;13.952;100.608;2024-02-28T13:35:09;4.17;;;4.99;;
37169;SDS011;23062;13.952;100.608;2024-02-28T13:39:49;3.77;;;4.95;;
37169;SDS011;23062;13.952;100.608;2024-02-28T13:44:31;3.45;;;4.93;;
37169;SDS011;23062;13.952;100.608;2024-02-28T13:49:09;4.09;;;5.33;;
37169;SDS011;23062;13.952;100.608;2024-02-28T13:53:55;4.12;;;5.33;;
37169;SDS011;23062;13.952;100.608;2024-02-28T13:58:33;4.39;;;5.40;;
37169;SDS011;23062;13.952;100.608;2024-02-28T14:03:22;3.90;;;4.98;;
37169;SDS011;23062;13.952;100.608;2024-02-28T14:08:05;3.34;;;4.55;;
37169;SDS011;23062;13.952;100.608;2024-02-28T14:12:55;3.86;;;4.56;;
37169;SDS011;23062;13.952;100.608;2024-02-28T14:17:45;4.07;;;4.97;;
37169;SDS011;23062;13.952;100.608;2024-02-28T14:22:26;3.48;;;4.53;;
37169;SDS011;23062;13.952;100.608;2024-02-28T14:27:13;3.68;;;4.52;;
37169;SDS011;23062;13.952;100.608;2024-02-28T14:31:59;3.71;;;4.53;;
37169;SDS011;23062;13.952;100.608;2024-02-28T14:36:50;3.50;;;4.94;;
37169;SDS011;23062;13.952;100.608;2024-02-28T14:41:33;4.77;;;5.79;;
37169;SDS011;23062;13.952;100.608;2024-02-28T14:46:15;4.20;;;5.35;;
37169;SDS011;23062;13.952;100.608;2024-02-28T14:51:02;3.69;;;4.93;;
37169;SDS011;23062;13.952;100.608;2024-02-28T14:55:43;4.44;;;5.36;;
37169;SDS011;23062;13.952;100.608;2024-02-28T15:00:27;3.90;;;4.93;;
37169;SDS011;23062;13.952;100.608;2024-02-28T15:05:13;3.88;;;4.92;;
37169;SDS011;23062;13.952;100.608;2024-02-28T15:09:56;4.34;;;5.33;;
37169;SDS011;23062;13.952;100.608;2024-02-28T15:14:43;3.10;;;4.49;;
37169;SDS011;23062;13.952;100.608;2024-02-28T15:19:35;3.60;;;4.59;;
37169;SDS011;23062;13.952;100.608;2024-02-28T15:24:23;3.74;;;5.30;;
37169;SDS011;23062;13.952;100.608;2024-02-28T15:29:10;4.22;;;5.72;;
37169;SDS011;23062;13.952;100.608;2024-02-28T15:33:57;3.78;;;5.31;;
37169;SDS011;23062;13.952;100.608;2024-02-28T15:38:38;4.25;;;6.13;;
37169;SDS011;23062;13.952;100.608;2024-02-28T15:43:27;4.45;;;5.72;;
37169;SDS011;23062;13.952;100.608;2024-02-28T15:48:16;4.53;;;6.15;;
37169;SDS011;23062;13.952;100.608;2024-02-28T15:53:06;4.45;;;5.72;;
37169;SDS011;23062;13.952;100.608;2024-02-28T15:57:52;4.21;;;5.31;;
37169;SDS011;23062;13.952;100.608;2024-02-28T16:02:38;4.24;;;5.31;;
37169;SDS011;23062;13.952;100.608;2024-02-28T16:07:17;4.18;;;5.71;;
37169;SDS011;23062;13.952;100.608;2024-02-28T16:12:03;4.12;;;5.69;;
37169;SDS011;23062;13.952;100.608;2024-02-28T16:16:49;4.08;;;5.68;;
37169;SDS011;23062;13.952;100.608;2024-02-28T16:21:38;3.89;;;5.69;;
37169;SDS011;23062;13.952;100.608;2024-02-28T16:26:29;3.53;;;5.25;;
37169;SDS011;23062;13.952;100.608;2024-02-28T16:31:08;3.99;;;5.66;;
37169;SDS011;23062;13.952;100.608;2024-02-28T16:35:48;4.40;;;6.06;;
37169;SDS011;23062;13.952;100.608;2024-02-28T16:40:33;3.95;;;6.06;;
37169;SDS011;23062;13.952;100.608;2024-02-28T16:45:17;4.15;;;5.65;;
37169;SDS011;23062;13.952;100.608;2024-02-28T16:50:04;4.26;;;6.03;;
37169;SDS011;23062;13.952;100.608;2024-02-28T16:54:48;4.35;;;6.05;;
37169;SDS011;23062;13.952;100.608;2024-02-28T16:59:34;3.68;;;5.24;;
37169;SDS011;23062;13.952;100.608;2024-02-28T17:04:23;3.70;;;5.24;;
37169;SDS011;23062;13.952;100.608;2024-02-28T17:09:15;3.87;;;5.23;;
37169;SDS011;23062;13.952;100.608;2024-02-28T17:14:01;4.01;;;5.67;;
37169;SDS011;23062;13.952;100.608;2024-02-28T17:18:47;3.56;;;4.85;;
37169;SDS011;23062;13.952;100.608;2024-02-28T17:23:36;3.47;;;4.83;;
37169;SDS011;23062;13.952;100.608;2024-02-28T17:28:17;3.78;;;5.66;;
37169;SDS011;23062;13.952;100.608;2024-02-28T17:33:03;4.22;;;6.07;;
37169;SDS011;23062;13.952;100.608;2024-02-28T17:37:48;3.55;;;5.25;;
37169;SDS011;23062;13.952;100.608;2024-02-28T17:42:35;3.38;;;4.86;;
37169;SDS011;23062;13.952;100.608;2024-02-28T17:47:20;3.58;;;5.26;;
37169;SDS011;23062;13.952;100.608;2024-02-28T17:52:06;3.37;;;4.45;;
37169;SDS011;23062;13.952;100.608;2024-02-28T17:56:52;3.38;;;4.45;;
37169;SDS011;23062;13.952;100.608;2024-02-28T18:01:38;3.41;;;4.55;;
37169;SDS011;23062;13.952;100.608;2024-02-28T18:06:28;2.86;;;4.08;;
37169;SDS011;23062;13.952;100.608;2024-02-28T18:11:27;2.90;;;4.09;;
37169;SDS011;23062;13.952;100.608;2024-02-28T18:16:18;3.52;;;4.48;;
37169;SDS011;23062;13.952;100.608;2024-02-28T18:21:04;2.63;;;3.67;;
37169;SDS011;23062;13.952;100.608;2024-02-28T18:25:44;3.51;;;4.48;;
37169;SDS011;23062;13.952;100.608;2024-02-28T18:30:26;3.34;;;4.08;;
37169;SDS011;23062;13.952;100.608;2024-02-28T18:35:13;3.10;;;4.08;;
37169;SDS011;23062;13.952;100.608;2024-02-28T18:39:59;4.16;;;5.70;;
37169;SDS011;23062;13.952;100.608;2024-02-28T18:44:37;3.76;;;4.90;;
37169;SDS011;23062;13.952;100.608;2024-02-28T18:49:16;2.67;;;3.67;;
37169;SDS011;23062;13.952;100.608;2024-02-28T18:54:03;2.92;;;4.09;;
37169;SDS011;23062;13.952;100.608;2024-02-28T18:58:49;3.42;;;4.51;;
37169;SDS011;23062;13.952;100.608;2024-02-28T19:03:26;3.15;;;4.09;;
37169;SDS011;23062;13.952;100.608;2024-02-28T19:08:03;4.11;;;5.33;;
37169;SDS011;23062;13.952;100.608;2024-02-28T19:12:41;3.62;;;4.51;;
37169;SDS011;23062;13.952;100.608;2024-02-28T19:17:24;2.93;;;4.09;;
37169;SDS011;23062;13.952;100.608;2024-02-28T19:22:11;3.37;;;4.50;;
37169;SDS011;23062;13.952;100.608;2024-02-28T19:32:25;3.13;;;4.09;;
37169;SDS011;23062;13.952;100.608;2024-02-28T19:37:07;3.57;;;4.49;;
37169;SDS011;23062;13.952;100.608;2024-02-28T19:41:54;2.99;;;4.11;;
37169;SDS011;23062;13.952;100.608;2024-02-28T19:46:48;3.95;;;5.30;;
37169;SDS011;23062;13.952;100.608;2024-02-28T19:51:36;3.54;;;4.90;;
37169;SDS011;23062;13.952;100.608;2024-02-28T19:56:24;3.08;;;4.48;;
37169;SDS011;23062;13.952;100.608;2024-02-28T20:01:01;3.49;;;4.88;;
37169;SDS011;23062;13.952;100.608;2024-02-28T20:05:49;3.49;;;4.88;;
37169;SDS011;23062;13.952;100.608;2024-02-28T20:10:35;2.84;;;3.80;;
37169;SDS011;23062;13.952;100.608;2024-02-28T20:15:20;3.43;;;4.87;;
37169;SDS011;23062;13.952;100.608;2024-02-28T20:20:02;3.42;;;4.87;;
37169;SDS011;23062;13.952;100.608;2024-02-28T20:24:44;3.68;;;5.28;;
37169;SDS011;23062;13.952;100.608;2024-02-28T20:29:28;3.00;;;4.46;;
37169;SDS011;23062;13.952;100.608;2024-02-28T20:34:05;2.60;;;3.66;;
37169;SDS011;23062;13.952;100.608;2024-02-28T20:38:52;3.23;;;4.47;;
37169;SDS011;23062;13.952;100.608;2024-02-28T20:43:37;3.40;;;4.54;;
37169;SDS011;23062;13.952;100.608;2024-02-28T20:48:22;2.82;;;4.07;;
37169;SDS011;23062;13.952;100.608;2024-02-28T20:53:03;3.22;;;4.47;;
37169;SDS011;23062;13.952;100.608;2024-02-28T20:57:46;2.79;;;4.06;;
37169;SDS011;23062;13.952;100.608;2024-02-28T21:02:30;2.96;;;4.45;;
37169;SDS011;23062;13.952;100.608;2024-02-28T21:07:13;3.00;;;4.06;;
37169;SDS011;23062;13.952;100.608;2024-02-28T21:12:00;2.79;;;4.06;;
37169;SDS011;23062;13.952;100.608;2024-02-28T21:16:45;2.81;;;4.06;;
37169;SDS011;23062;13.952;100.608;2024-02-28T21:21:23;3.54;;;4.90;;
37169;SDS011;23062;13.952;100.608;2024-02-28T21:26:11;3.16;;;4.41;;
37169;SDS011;23062;13.952;100.608;2024-02-28T21:30:51;2.74;;;4.00;;
37169;SDS011;23062;13.952;100.608;2024-02-28T21:35:35;3.09;;;4.79;;
37169;SDS011;23062;13.952;100.608;2024-02-28T21:40:14;2.74;;;4.40;;
37169;SDS011;23062;13.952;100.608;2024-02-28T21:44:57;2.47;;;3.58;;
37169;SDS011;23062;13.952;100.608;2024-02-28T21:49:41;2.40;;;3.92;;
37169;SDS011;23062;13.952;100.608;2024-02-28T21:54:26;2.59;;;3.93;;
37169;SDS011;23062;13.952;100.608;2024-02-28T21:59:12;2.68;;;4.69;;
37169;SDS011;23062;13.952;100.608;2024-02-28T22:03:50;2.27;;;4.28;;
37169;SDS011;23062;13.952;100.608;2024-02-28T22:08:31;2.94;;;4.71;;
37169;SDS011;23062;13.952;100.608;2024-02-28T22:13:18;3.60;;;7.25;;
37169;SDS011;23062;13.952;100.608;2024-02-28T22:18:03;2.64;;;6.36;;
37169;SDS011;23062;13.952;100.608;2024-02-28T22:22:47;2.13;;;5.23;;
37169;SDS011;23062;13.952;100.608;2024-02-28T22:27:31;1.73;;;4.17;;
37169;SDS011;23062;13.952;100.608;2024-02-28T22:32:16;2.09;;;4.87;;
